createdAt,value
2022-11-26T00:00:19.454Z,14.57
2022-11-26T00:02:51.847Z,15.20
2022-11-26T00:05:21.200Z,14.50
2022-11-26T00:07:58.571Z,15.20
2022-11-26T00:10:28.768Z,18.15
2022-11-26T00:12:59.120Z,14.73
2022-11-26T00:15:29.449Z,14.97
2022-11-26T00:17:57.928Z,14.93
2022-11-26T00:20:35.760Z,13.17
2022-11-26T00:23:05.545Z,14.50
2022-11-26T00:25:46.090Z,15.37
2022-11-26T00:28:33.666Z,15.37
2022-11-26T00:31:08.656Z,15.33
2022-11-26T00:33:36.718Z,15.43
2022-11-26T00:36:19.593Z,14.23
2022-11-26T00:38:52.140Z,15.00
2022-11-26T00:41:23.097Z,16.27
2022-11-26T00:43:53.840Z,12.33
2022-11-26T00:46:23.369Z,14.40
2022-11-26T00:48:52.360Z,13.73
2022-11-26T00:51:28.913Z,12.57
2022-11-26T00:54:01.468Z,13.60
2022-11-26T00:56:32.687Z,12.73
2022-11-26T00:59:07.702Z,12.17
2022-11-26T01:01:38.165Z,12.27
2022-11-26T01:04:08.049Z,11.50
2022-11-26T01:06:40.856Z,10.97
2022-11-26T01:09:21.683Z,10.50
2022-11-26T01:11:56.813Z,10.70
2022-11-26T01:14:29.557Z,10.60
2022-11-26T01:17:04.454Z,11.47
2022-11-26T01:19:35.627Z,10.53
2022-11-26T01:22:08.303Z,10.37
2022-11-26T01:24:38.917Z,10.50
2022-11-26T01:27:12.758Z,9.70
2022-11-26T01:29:42.638Z,10.33
2022-11-26T01:32:11.992Z,11.07
2022-11-26T01:34:42.852Z,10.50
2022-11-26T01:37:15.555Z,10.80
2022-11-26T01:39:45.211Z,12.40
2022-11-26T01:42:38.823Z,11.47
2022-11-26T01:45:23.307Z,12.63
2022-11-26T01:47:56.971Z,11.30
2022-11-26T01:50:36.867Z,10.80
2022-11-26T01:53:17.028Z,9.87
2022-11-26T01:56:12.805Z,10.13
2022-11-26T01:58:45.812Z,9.10
2022-11-26T02:01:14.152Z,8.90
2022-11-26T02:03:55.769Z,10.10
2022-11-26T02:06:28.768Z,8.13
2022-11-26T02:08:56.970Z,9.53
2022-11-26T02:11:27.374Z,9.23
2022-11-26T02:14:06.813Z,8.93
2022-11-26T02:16:53.994Z,12.63
2022-11-26T02:19:48.906Z,12.10
2022-11-26T02:23:02.320Z,8.57
2022-11-26T02:25:42.045Z,7.37
2022-11-26T02:28:39.841Z,13.80
2022-11-26T02:31:50.583Z,7.67
2022-11-26T02:34:45.503Z,9.73
2022-11-26T02:37:30.744Z,12.90
2022-11-26T02:39:59.443Z,9.57
2022-11-26T02:42:30.596Z,10.20
2022-11-26T02:45:03.076Z,8.67
2022-11-26T02:47:33.057Z,10.10
2022-11-26T02:50:05.898Z,8.83
2022-11-26T02:52:35.383Z,8.07
2022-11-26T02:55:06.302Z,6.83
2022-11-26T02:57:40.642Z,9.10
2022-11-26T03:00:09.320Z,8.27
2022-11-26T03:02:47.244Z,7.40
2022-11-26T03:05:18.800Z,8.77
2022-11-26T03:07:52.894Z,7.50
2022-11-26T03:10:28.286Z,7.40
2022-11-26T03:12:56.026Z,7.33
2022-11-26T03:15:24.184Z,9.73
2022-11-26T03:17:51.847Z,6.83
2022-11-26T03:20:21.132Z,7.50
2022-11-26T03:22:48.556Z,6.90
2022-11-26T03:25:16.027Z,7.10
2022-11-26T03:27:43.575Z,6.57
2022-11-26T03:30:11.743Z,7.00
2022-11-26T03:32:39.373Z,8.30
2022-11-26T03:35:07.585Z,6.47
2022-11-26T03:37:35.563Z,7.57
2022-11-26T03:40:03.278Z,7.90
2022-11-26T03:42:31.134Z,7.20
2022-11-26T03:44:58.823Z,7.17
2022-11-26T03:47:27.548Z,6.57
2022-11-26T03:49:55.598Z,7.30
2022-11-26T03:52:23.242Z,7.73
2022-11-26T03:54:50.789Z,7.73
2022-11-26T03:57:18.568Z,6.57
2022-11-26T03:59:46.079Z,8.20
2022-11-26T04:02:13.659Z,7.80
2022-11-26T04:04:41.424Z,7.63
2022-11-26T04:07:08.960Z,7.80
2022-11-26T04:09:37.044Z,6.77
2022-11-26T04:12:04.910Z,6.33
2022-11-26T04:14:32.534Z,6.67
2022-11-26T04:17:00.871Z,6.53
2022-11-26T04:19:28.752Z,7.73
2022-11-26T04:21:56.470Z,6.93
2022-11-26T04:24:25.095Z,8.60
2022-11-26T04:26:52.743Z,9.50
2022-11-26T04:29:20.678Z,8.10
2022-11-26T04:31:48.143Z,9.27
2022-11-26T04:34:15.700Z,8.83
2022-11-26T04:36:43.130Z,10.10
2022-11-26T04:39:11.508Z,10.07
2022-11-26T04:41:39.287Z,11.27
2022-11-26T04:44:06.957Z,11.13
2022-11-26T04:46:34.514Z,11.90
2022-11-26T04:49:02.265Z,10.77
2022-11-26T04:51:29.754Z,13.70
2022-11-26T04:54:00.437Z,10.93
2022-11-26T04:56:30.294Z,10.87
2022-11-26T04:58:57.615Z,10.70
2022-11-26T05:01:25.319Z,12.83
2022-11-26T05:03:52.880Z,12.27
2022-11-26T05:06:20.464Z,11.43
2022-11-26T05:08:47.934Z,11.07
2022-11-26T05:11:15.312Z,11.47
2022-11-26T05:13:43.132Z,12.30
2022-11-26T05:16:10.743Z,12.57
2022-11-26T05:18:38.280Z,12.93
2022-11-26T05:21:06.746Z,11.87
2022-11-26T05:23:34.365Z,14.07
2022-11-26T05:26:01.798Z,12.83
2022-11-26T05:28:29.213Z,13.90
2022-11-26T05:31:01.786Z,14.67
2022-11-26T05:33:29.483Z,14.07
2022-11-26T05:35:56.936Z,14.07
2022-11-26T05:38:24.552Z,14.20
2022-11-26T05:40:52.548Z,14.90
2022-11-26T05:43:19.985Z,13.87
2022-11-26T05:45:47.514Z,14.93
2022-11-26T05:48:15.150Z,14.00
2022-11-26T05:50:42.809Z,13.70
2022-11-26T05:53:10.396Z,13.77
2022-11-26T05:55:38.306Z,12.33
2022-11-26T05:58:05.871Z,14.03
2022-11-26T06:00:34.309Z,13.43
2022-11-26T06:03:02.526Z,12.63
2022-11-26T06:05:29.913Z,12.53
2022-11-26T06:07:57.285Z,12.97
2022-11-26T06:10:25.159Z,12.27
2022-11-26T06:12:52.580Z,13.47
2022-11-26T06:15:20.188Z,13.50
2022-11-26T06:17:47.549Z,15.30
2022-11-26T06:20:15.277Z,13.73
2022-11-26T06:22:43.749Z,15.63
2022-11-26T06:25:14.261Z,14.67
2022-11-26T06:27:42.414Z,14.93
2022-11-26T06:30:11.526Z,13.23
2022-11-26T06:32:38.987Z,14.33
2022-11-26T06:35:06.605Z,13.60
2022-11-26T06:37:33.793Z,13.77
2022-11-26T06:40:00.902Z,13.13
2022-11-26T06:42:29.760Z,12.97
2022-11-26T06:44:59.765Z,13.20
2022-11-26T06:47:27.833Z,14.83
2022-11-26T06:49:55.494Z,14.00
2022-11-26T06:52:22.759Z,13.27
2022-11-26T06:54:50.464Z,13.53
2022-11-26T06:57:17.827Z,13.80
2022-11-26T06:59:45.208Z,13.17
2022-11-26T07:05:17.907Z,12.40
2022-11-26T07:07:45.261Z,13.93
2022-11-26T07:10:13.047Z,12.13
2022-11-26T07:12:40.441Z,11.93
2022-11-26T07:15:08.499Z,12.03
2022-11-26T07:17:35.814Z,13.57
2022-11-26T07:20:03.307Z,12.60
2022-11-26T07:22:32.834Z,12.53
2022-11-26T07:25:01.412Z,12.67
2022-11-26T07:27:28.850Z,12.70
2022-11-26T07:29:56.444Z,13.03
2022-11-26T07:32:23.906Z,12.50
2022-11-26T07:34:51.597Z,12.13
2022-11-26T07:37:19.368Z,12.50
2022-11-26T07:39:47.764Z,13.87
2022-11-26T07:42:15.225Z,12.10
2022-11-26T07:44:42.868Z,12.43
2022-11-26T07:47:10.158Z,12.70
2022-11-26T07:49:37.608Z,12.50
2022-11-26T07:52:05.238Z,11.87
2022-11-26T07:54:32.453Z,12.30
2022-11-26T07:56:59.753Z,12.73
2022-11-26T07:59:27.459Z,12.70
2022-11-26T08:01:55.208Z,13.03
2022-11-26T08:04:23.547Z,12.93
2022-11-26T08:06:51.278Z,13.63
2022-11-26T08:09:19.161Z,13.13
2022-11-26T08:11:47.727Z,13.37
2022-11-26T08:14:15.400Z,13.70
2022-11-26T08:16:42.879Z,12.67
2022-11-26T08:19:14.546Z,12.57
2022-11-26T08:21:42.030Z,12.57
2022-11-26T08:24:14.653Z,12.90
2022-11-26T08:26:44.359Z,12.50
2022-11-26T08:29:13.296Z,13.43
2022-11-26T08:31:45.982Z,14.13
2022-11-26T08:34:15.678Z,13.73
2022-11-26T08:36:44.717Z,13.20
2022-11-26T08:42:05.541Z,11.93
2022-11-26T08:47:29.205Z,12.23
2022-11-26T08:49:59.311Z,12.03
2022-11-26T08:52:28.504Z,11.40
2022-11-26T08:55:13.076Z,13.50
2022-11-26T08:57:42.444Z,12.07
2022-11-26T09:00:13.297Z,13.10
2022-11-26T09:02:42.788Z,11.97
2022-11-26T09:05:11.592Z,12.73
2022-11-26T09:07:46.408Z,12.43
2022-11-26T09:10:17.367Z,12.00
2022-11-26T09:12:46.000Z,12.67
2022-11-26T09:15:15.535Z,13.00
2022-11-26T09:17:45.036Z,12.50
2022-11-26T09:29:00.287Z,13.10
2022-11-26T09:31:29.206Z,12.63
2022-11-26T09:34:04.051Z,13.33
2022-11-26T09:36:33.320Z,13.03
2022-11-26T09:39:03.192Z,13.30
2022-11-26T09:41:57.980Z,13.67
2022-11-26T09:45:03.586Z,13.13
2022-11-26T09:47:44.013Z,12.53
2022-11-26T09:50:17.404Z,13.50
2022-11-26T09:53:07.823Z,13.13
2022-11-26T09:55:39.169Z,12.37
2022-11-26T09:58:30.728Z,13.50
2022-11-26T10:01:01.245Z,14.93
2022-11-26T10:03:35.000Z,14.37
2022-11-26T10:06:32.685Z,13.73
2022-11-26T10:09:17.754Z,13.30
2022-11-26T10:12:01.320Z,14.77
2022-11-26T10:14:46.852Z,12.93
2022-11-26T10:17:32.396Z,14.07
2022-11-26T10:20:18.422Z,13.67
2022-11-26T10:22:57.382Z,14.97
2022-11-26T10:25:29.563Z,15.37
2022-11-26T10:27:59.604Z,14.40
2022-11-26T10:30:29.604Z,14.50
2022-11-26T10:33:01.868Z,15.23
2022-11-26T10:35:31.553Z,14.97
2022-11-26T10:37:59.637Z,15.27
2022-11-26T10:40:30.138Z,15.63
2022-11-26T10:43:10.777Z,16.63
2022-11-26T10:45:39.934Z,16.83
2022-11-26T10:48:25.586Z,17.00
2022-11-26T10:57:56.102Z,16.80
2022-11-26T11:00:42.862Z,15.37
2022-11-26T11:03:38.179Z,16.03
2022-11-26T11:06:21.645Z,15.37
2022-11-26T11:08:53.425Z,16.37
2022-11-26T11:11:31.443Z,16.63
2022-11-26T11:13:58.684Z,16.10
2022-11-26T11:16:29.221Z,16.27
2022-11-26T11:19:03.097Z,16.43
2022-11-26T11:21:36.641Z,17.60
2022-11-26T11:24:09.598Z,16.33
2022-11-26T11:26:43.491Z,16.97
2022-11-26T11:29:26.541Z,17.33
2022-11-26T11:31:54.024Z,15.97
2022-11-26T11:34:28.327Z,16.47
2022-11-26T11:37:04.665Z,16.27
2022-11-26T11:39:36.827Z,17.43
2022-11-26T11:42:26.123Z,17.07
2022-11-26T11:47:57.879Z,14.23
2022-11-26T11:50:42.838Z,14.93
2022-11-26T11:53:23.614Z,14.97
2022-11-26T11:56:06.136Z,14.73
2022-11-26T11:58:58.135Z,14.50
2022-11-26T12:01:47.736Z,13.30
2022-11-26T12:04:33.746Z,13.60
2022-11-26T12:07:26.718Z,14.13
2022-11-26T12:10:01.449Z,13.80
2022-11-26T12:12:46.613Z,14.13
2022-11-26T12:15:30.805Z,14.27
2022-11-26T12:18:23.097Z,14.93
2022-11-26T12:20:58.979Z,14.47
2022-11-26T12:24:02.075Z,14.57
2022-11-26T12:27:26.917Z,14.33
2022-11-26T12:30:01.859Z,14.67
2022-11-26T12:32:46.329Z,13.93
2022-11-26T12:35:26.152Z,14.57
2022-11-26T12:38:00.094Z,15.27
2022-11-26T12:41:14.512Z,14.50
2022-11-26T12:44:03.740Z,14.30
2022-11-26T12:46:53.024Z,16.20
2022-11-26T12:49:36.937Z,15.80
2022-11-26T12:52:14.882Z,15.77
2022-11-26T12:55:04.819Z,16.73
2022-11-26T12:57:50.354Z,14.47
2022-11-26T13:00:31.390Z,16.50
2022-11-26T13:03:06.715Z,15.07
2022-11-26T13:06:31.347Z,17.27
2022-11-26T13:09:15.636Z,16.07
2022-11-26T13:11:54.227Z,16.90
2022-11-26T13:14:53.144Z,17.87
2022-11-26T13:17:42.467Z,15.90
2022-11-26T13:20:37.407Z,16.33
2022-11-26T13:23:38.697Z,16.27
2022-11-26T13:26:25.395Z,16.30
2022-11-26T13:29:05.228Z,16.37
2022-11-26T13:32:12.757Z,18.00
2022-11-26T13:35:15.073Z,17.57
2022-11-26T13:38:25.380Z,15.77
2022-11-26T13:41:36.869Z,16.57
2022-11-26T13:44:36.966Z,18.63
2022-11-26T13:47:15.096Z,17.07
2022-11-26T13:50:19.134Z,16.73
2022-11-26T13:53:00.610Z,16.90
2022-11-26T13:56:06.085Z,16.17
2022-11-26T13:58:47.022Z,17.33
2022-11-26T14:01:55.101Z,16.93
2022-11-26T14:04:23.916Z,16.40
2022-11-26T14:10:03.629Z,17.77
2022-11-26T14:13:03.575Z,18.57
2022-11-26T14:15:47.877Z,16.83
2022-11-26T14:18:54.323Z,17.40
2022-11-26T14:21:26.200Z,16.27
2022-11-26T14:24:03.484Z,17.00
2022-11-26T14:26:45.743Z,16.87
2022-11-26T14:29:27.945Z,16.87
2022-11-26T14:32:01.585Z,16.20
2022-11-26T14:34:53.752Z,18.00
2022-11-26T14:37:34.240Z,17.43
2022-11-26T14:40:10.903Z,16.27
2022-11-26T14:42:43.598Z,16.73
2022-11-26T14:45:25.749Z,15.83
2022-11-26T14:48:07.722Z,17.87
2022-11-26T14:50:43.026Z,15.80
2022-11-26T14:53:21.823Z,16.10
2022-11-26T14:55:57.419Z,16.53
2022-11-26T14:58:42.124Z,15.27
2022-11-26T15:01:13.110Z,15.53
2022-11-26T15:12:28.775Z,16.80
2022-11-26T15:15:18.075Z,16.40
2022-11-26T15:17:57.427Z,15.47
2022-11-26T15:20:31.555Z,14.80
2022-11-26T15:23:18.696Z,16.37
2022-11-26T15:26:09.964Z,18.37
2022-11-26T15:33:00.631Z,15.20
2022-11-26T15:35:32.582Z,14.77
2022-11-26T15:38:06.046Z,15.60
2022-11-26T15:41:05.567Z,16.70
2022-11-26T15:44:07.167Z,15.63
2022-11-26T15:46:47.497Z,15.37
2022-11-26T15:49:30.789Z,13.53
2022-11-26T15:52:12.357Z,13.53
2022-11-26T15:55:15.101Z,13.30
2022-11-26T15:57:54.626Z,13.73
2022-11-26T16:00:25.518Z,13.73
2022-11-26T16:06:10.999Z,17.03
2022-11-26T16:11:41.023Z,13.30
2022-11-26T16:14:49.444Z,13.73
2022-11-26T16:17:28.209Z,15.10
2022-11-26T16:20:04.175Z,17.10
2022-11-26T16:22:35.337Z,14.30
2022-11-26T16:25:07.916Z,14.23
2022-11-26T16:27:50.336Z,13.93
2022-11-26T16:30:22.166Z,14.83
2022-11-26T16:32:54.218Z,15.10
2022-11-26T16:35:45.114Z,14.17
2022-11-26T16:38:28.550Z,14.10
2022-11-26T16:41:11.931Z,14.90
2022-11-26T16:43:47.356Z,15.10
2022-11-26T16:46:28.519Z,14.63
2022-11-26T16:48:59.652Z,16.27
2022-11-26T16:51:42.593Z,14.93
2022-11-26T16:54:17.325Z,15.80
2022-11-26T16:56:59.662Z,17.47
2022-11-26T16:59:32.645Z,17.70
2022-11-26T17:02:22.533Z,17.40
2022-11-26T17:08:02.836Z,17.20
2022-11-26T17:13:59.453Z,16.10
2022-11-26T17:19:32.296Z,16.63
2022-11-26T17:25:19.693Z,16.97
2022-11-26T17:30:57.164Z,16.90
2022-11-26T17:33:37.985Z,16.73
2022-11-26T17:42:37.007Z,17.57
2022-11-26T17:45:16.767Z,17.73
2022-11-26T17:53:30.989Z,19.70
2022-11-26T17:56:21.596Z,18.63
2022-11-26T18:02:50.824Z,20.13
2022-11-26T18:05:25.737Z,19.13
2022-11-26T18:08:28.805Z,18.77
2022-11-26T18:17:08.719Z,17.87
2022-11-26T18:19:46.695Z,18.33
2022-11-26T18:22:27.139Z,21.07
2022-11-26T18:24:57.613Z,20.47
2022-11-26T18:27:48.546Z,22.97
2022-11-26T18:30:18.757Z,19.70
2022-11-26T18:32:57.063Z,20.77
2022-11-26T18:35:29.157Z,20.80
2022-11-26T18:38:02.862Z,19.43
2022-11-26T18:40:36.927Z,19.50
2022-11-26T18:43:10.181Z,20.80
2022-11-26T18:45:38.703Z,20.93
2022-11-26T18:48:13.191Z,18.90
2022-11-26T18:51:08.463Z,20.03
2022-11-26T18:53:39.702Z,19.57
2022-11-26T18:56:19.165Z,20.80
2022-11-26T18:58:53.895Z,20.57
2022-11-26T19:01:33.303Z,18.67
2022-11-26T19:04:13.245Z,19.33
2022-11-26T19:06:55.000Z,20.17
2022-11-26T19:09:39.004Z,20.23
2022-11-26T19:12:08.147Z,20.87
2022-11-26T19:14:38.671Z,20.33
2022-11-26T19:17:06.245Z,20.00
2022-11-26T19:19:47.005Z,19.63
2022-11-26T19:22:19.372Z,20.80
2022-11-26T19:24:53.617Z,20.73
2022-11-26T19:30:29.842Z,18.70
2022-11-26T19:33:03.226Z,20.23
2022-11-26T19:35:35.397Z,17.63
2022-11-26T19:38:05.949Z,17.37
2022-11-26T19:40:41.934Z,19.13
2022-11-26T19:43:20.070Z,17.07
2022-11-26T19:45:48.641Z,18.87
2022-11-26T19:48:25.036Z,19.70
2022-11-26T19:51:11.258Z,18.40
2022-11-26T19:53:44.681Z,18.50
2022-11-26T19:56:25.525Z,18.27
2022-11-26T19:58:59.454Z,18.67
2022-11-26T20:01:34.999Z,19.13
2022-11-26T20:04:06.812Z,20.37
2022-11-26T20:06:43.278Z,18.90
2022-11-26T20:09:17.162Z,19.10
2022-11-26T20:11:57.731Z,19.10
2022-11-26T20:14:30.649Z,19.37
2022-11-26T20:17:03.521Z,19.50
2022-11-26T20:19:36.632Z,20.97
2022-11-26T20:22:09.259Z,20.20
2022-11-26T20:24:44.072Z,19.77
2022-11-26T20:27:19.818Z,19.80
2022-11-26T20:30:05.451Z,21.30
2022-11-26T20:32:37.264Z,25.77
2022-11-26T20:35:09.255Z,24.57
2022-11-26T20:37:42.383Z,21.03
2022-11-26T20:40:13.601Z,21.63
2022-11-26T20:42:47.210Z,22.20
2022-11-26T20:45:30.190Z,23.10
2022-11-26T20:48:05.934Z,22.40
2022-11-26T20:50:38.235Z,22.23
2022-11-26T20:53:20.582Z,22.60
2022-11-26T20:56:04.276Z,22.97
2022-11-26T20:58:38.281Z,22.53
2022-11-26T21:01:37.200Z,21.93
2022-11-26T21:04:08.501Z,21.27
2022-11-26T21:09:26.322Z,22.97
2022-11-26T21:11:58.147Z,21.70
2022-11-26T21:14:30.324Z,22.33
2022-11-26T21:17:22.001Z,23.83
2022-11-26T21:19:52.519Z,23.20
2022-11-26T21:22:22.379Z,22.77
2022-11-26T21:24:52.050Z,23.97
2022-11-26T21:27:36.836Z,23.73
2022-11-26T21:30:07.951Z,23.50
2022-11-26T21:32:49.329Z,23.67
2022-11-26T21:35:29.346Z,24.73
2022-11-26T21:38:02.672Z,24.07
2022-11-26T21:40:31.862Z,24.17
2022-11-26T21:43:06.627Z,23.90
2022-11-26T21:45:37.092Z,24.23
2022-11-26T21:48:06.340Z,24.73
2022-11-26T21:50:35.873Z,25.27
2022-11-26T21:53:07.923Z,25.77
2022-11-26T21:55:50.444Z,25.20
2022-11-26T21:58:18.892Z,25.87
2022-11-26T22:00:49.463Z,25.37
2022-11-26T22:03:16.766Z,27.57
2022-11-26T22:05:46.225Z,26.57
2022-11-26T22:08:21.065Z,27.60
2022-11-26T22:10:53.592Z,26.97
2022-11-26T22:13:31.221Z,28.20
2022-11-26T22:16:02.054Z,28.50
2022-11-26T22:18:29.565Z,30.93
2022-11-26T22:20:59.560Z,29.40
2022-11-26T22:23:32.735Z,30.57
2022-11-26T22:26:06.822Z,32.20
2022-11-26T22:28:35.154Z,30.90
2022-11-26T22:31:41.368Z,30.37
2022-11-26T22:34:12.600Z,31.67
2022-11-26T22:36:40.716Z,32.33
2022-11-26T22:39:15.921Z,30.57
2022-11-26T22:41:46.353Z,31.87
2022-11-26T22:44:14.621Z,33.90
2022-11-26T22:46:42.932Z,32.43
2022-11-26T22:49:17.847Z,30.87
2022-11-26T22:51:48.404Z,31.57
2022-11-26T22:54:31.694Z,33.80
2022-11-26T22:57:00.526Z,33.97
2022-11-26T22:59:32.845Z,32.93
2022-11-26T23:02:01.553Z,33.60
2022-11-26T23:04:28.345Z,30.57
2022-11-26T23:07:08.714Z,33.80
2022-11-26T23:09:47.100Z,34.03
2022-11-26T23:12:14.306Z,32.63
2022-11-26T23:14:49.259Z,34.63
2022-11-26T23:17:23.438Z,34.07
2022-11-26T23:19:55.709Z,33.13
2022-11-26T23:22:26.883Z,32.63
2022-11-26T23:25:03.139Z,33.23
2022-11-26T23:27:31.741Z,34.37
2022-11-26T23:30:01.214Z,33.57
2022-11-26T23:32:32.432Z,35.63
2022-11-26T23:34:59.402Z,33.10
2022-11-26T23:37:29.295Z,34.30
2022-11-26T23:40:01.012Z,32.73
2022-11-26T23:42:30.152Z,33.53
2022-11-26T23:45:03.800Z,34.03
2022-11-26T23:47:37.198Z,33.53
2022-11-26T23:50:10.745Z,34.27
2022-11-26T23:52:41.991Z,32.73
2022-11-26T23:55:09.434Z,33.13
2022-11-26T23:57:36.896Z,31.70
